createdAt,value
2022-12-24T00:03:30.902Z,100395.80
2022-12-24T00:07:30.612Z,100396.59
2022-12-24T00:11:30.079Z,100398.86
2022-12-24T00:15:30.033Z,100404.78
2022-12-24T00:19:29.772Z,100400.00
2022-12-24T00:23:43.403Z,100399.63
2022-12-24T00:27:44.014Z,100403.23
2022-12-24T00:31:43.799Z,100408.16
2022-12-24T00:35:42.679Z,100410.67
2022-12-24T00:39:41.979Z,100411.70
2022-12-24T00:43:41.478Z,100412.06
2022-12-24T00:47:40.706Z,100413.25
2022-12-24T00:51:39.921Z,100415.83
2022-12-24T00:55:39.643Z,100425.51
2022-12-24T00:59:39.246Z,100425.05
2022-12-24T01:03:39.042Z,100428.11
2022-12-24T01:07:52.048Z,100433.23
2022-12-24T01:11:51.210Z,100434.85
2022-12-24T01:15:50.818Z,100435.61
2022-12-24T01:19:50.560Z,100434.98
2022-12-24T01:23:49.916Z,100438.81
2022-12-24T01:27:49.434Z,100441.55
2022-12-24T01:31:48.729Z,100447.05
2022-12-24T01:35:47.870Z,100449.28
2022-12-24T01:39:47.350Z,100446.83
2022-12-24T01:43:46.653Z,100453.19
2022-12-24T01:47:46.287Z,100455.42
2022-12-24T01:51:48.938Z,100468.13
2022-12-24T01:55:49.871Z,100474.42
2022-12-24T01:59:51.862Z,100476.37
2022-12-24T02:04:10.025Z,100479.05
2022-12-24T02:08:10.204Z,100479.85
2022-12-24T02:12:28.261Z,100483.27
2022-12-24T02:16:03.332Z,100481.52
2022-12-24T02:19:59.896Z,100480.40
2022-12-24T02:23:20.221Z,100482.33
2022-12-24T02:27:46.678Z,100491.88
2022-12-24T02:32:06.337Z,100498.35
2022-12-24T02:36:31.113Z,100495.84
2022-12-24T02:40:46.698Z,100503.95
2022-12-24T02:44:57.076Z,100504.92
2022-12-24T02:48:59.615Z,100506.17
2022-12-24T02:52:59.536Z,100509.55
2022-12-24T03:04:47.699Z,100516.02
2022-12-24T03:08:56.808Z,100523.82
2022-12-24T03:17:31.764Z,100531.36
2022-12-24T03:21:10.478Z,100535.64
2022-12-24T03:24:48.926Z,100537.98
2022-12-24T03:28:27.148Z,100538.75
2022-12-24T03:32:03.495Z,100540.31
2022-12-24T03:36:18.165Z,100544.86
2022-12-24T03:39:55.329Z,100549.69
2022-12-24T03:44:00.314Z,100554.27
2022-12-24T03:47:33.393Z,100553.70
2022-12-24T03:51:35.528Z,100556.59
2022-12-24T03:55:35.811Z,100563.40
2022-12-24T03:59:35.900Z,100570.36
2022-12-24T04:03:35.673Z,100576.15
2022-12-24T04:11:49.573Z,100575.80
2022-12-24T04:16:06.515Z,100583.71
2022-12-24T04:19:40.861Z,100581.98
2022-12-24T04:23:41.377Z,100585.39
2022-12-24T04:27:41.603Z,100589.34
2022-12-24T04:31:56.782Z,100589.34
2022-12-24T04:35:59.708Z,100590.44
2022-12-24T04:40:00.533Z,100587.84
2022-12-24T04:43:38.426Z,100592.34
2022-12-24T04:47:17.638Z,100594.02
2022-12-24T04:50:53.216Z,100601.02
2022-12-24T04:54:55.651Z,100601.69
2022-12-24T04:58:31.421Z,100596.34
2022-12-24T05:02:08.267Z,100601.66
2022-12-24T05:06:11.934Z,100607.96
2022-12-24T05:10:14.130Z,100612.39
2022-12-24T05:14:08.769Z,100615.63
2022-12-24T05:17:28.423Z,100619.52
2022-12-24T05:21:42.836Z,100617.82
2022-12-24T05:25:38.759Z,100618.80
2022-12-24T05:29:41.582Z,100624.02
2022-12-24T05:33:21.435Z,100622.90
2022-12-24T05:36:59.115Z,100624.09
2022-12-24T05:40:32.093Z,100627.86
2022-12-24T05:44:45.616Z,100624.98
2022-12-24T05:48:59.389Z,100631.91
2022-12-24T05:52:59.576Z,100635.94
2022-12-24T05:56:59.565Z,100641.80
2022-12-24T06:00:59.151Z,100647.17
2022-12-24T06:04:58.990Z,100652.16
2022-12-24T06:08:59.996Z,100655.20
2022-12-24T06:13:13.809Z,100661.79
2022-12-24T06:17:28.671Z,100670.42
2022-12-24T06:21:28.989Z,100677.27
2022-12-24T06:25:29.117Z,100681.59
2022-12-24T06:29:33.134Z,100691.55
2022-12-24T06:37:21.199Z,100700.73
2022-12-24T06:41:21.932Z,100702.05
2022-12-24T06:45:21.776Z,100703.20
2022-12-24T06:49:35.221Z,100702.56
2022-12-24T06:53:34.573Z,100710.73
2022-12-24T06:57:52.895Z,100719.77
2022-12-24T07:01:14.839Z,100725.10
2022-12-24T07:05:16.267Z,100735.36
2022-12-24T07:08:53.569Z,100739.64
2022-12-24T07:12:53.777Z,100749.88
2022-12-24T07:16:58.655Z,100751.64
2022-12-24T07:25:26.443Z,100766.21
2022-12-24T07:29:42.106Z,100776.95
2022-12-24T07:33:17.697Z,100781.34
2022-12-24T07:37:17.528Z,100787.45
2022-12-24T07:41:18.061Z,100800.20
2022-12-24T07:45:19.161Z,100808.65
2022-12-24T07:49:19.151Z,100812.56
2022-12-24T07:53:19.022Z,100823.36
2022-12-24T07:57:19.194Z,100824.94
2022-12-24T08:01:19.230Z,100827.44
2022-12-24T08:05:19.317Z,100829.95
2022-12-24T08:09:19.775Z,100840.62
2022-12-24T08:13:19.517Z,100840.20
2022-12-24T08:17:32.833Z,100848.96
2022-12-24T08:21:51.647Z,100848.33
2022-12-24T08:25:11.261Z,100847.60
2022-12-24T08:29:12.059Z,100845.80
2022-12-24T08:33:12.656Z,100847.73
2022-12-24T08:37:13.055Z,100855.83
2022-12-24T08:41:13.291Z,100859.61
2022-12-24T08:45:12.563Z,100869.59
2022-12-24T08:49:13.371Z,100876.48
2022-12-24T08:53:13.913Z,100885.65
2022-12-24T08:57:14.916Z,100889.65
2022-12-24T09:01:15.907Z,100887.70
2022-12-24T09:05:15.754Z,100893.80
2022-12-24T09:09:37.543Z,100903.92
2022-12-24T09:13:06.466Z,100910.77
2022-12-24T09:21:34.346Z,100922.85
2022-12-24T09:25:34.773Z,100927.67
2022-12-24T09:29:36.289Z,100926.86
2022-12-24T09:33:37.967Z,100926.89
2022-12-24T09:38:03.265Z,100933.64
2022-12-24T09:42:22.207Z,100944.50
2022-12-24T09:46:39.813Z,100947.81
2022-12-24T09:50:56.256Z,100941.04
2022-12-24T09:55:03.899Z,100945.05
2022-12-24T10:03:19.990Z,100940.43
2022-12-24T10:07:39.633Z,100944.98
2022-12-24T10:11:07.274Z,100951.70
2022-12-24T10:14:41.045Z,100956.29
2022-12-24T10:18:13.282Z,100958.88
2022-12-24T10:34:46.065Z,100964.89
2022-12-24T10:39:00.744Z,100975.64
2022-12-24T10:42:42.113Z,100978.20
2022-12-24T10:46:47.189Z,100985.54
2022-12-24T10:50:37.931Z,100988.46
2022-12-24T10:55:13.369Z,100991.95
2022-12-24T10:58:30.930Z,100992.23
2022-12-24T11:07:01.356Z,100999.80
2022-12-24T11:11:05.913Z,101000.44
2022-12-24T11:15:23.651Z,101003.48
2022-12-24T11:18:51.299Z,101010.71
2022-12-24T11:22:21.757Z,101015.66
2022-12-24T11:26:24.904Z,101015.08
2022-12-24T11:30:28.446Z,101020.66
2022-12-24T11:34:24.294Z,101023.01
2022-12-24T11:37:42.253Z,101026.96
2022-12-24T11:41:20.673Z,101027.67
2022-12-24T11:44:58.522Z,101022.16
2022-12-24T11:49:08.211Z,101032.10
2022-12-24T11:53:22.743Z,101037.95
2022-12-24T11:56:54.263Z,101043.73
2022-12-24T12:00:26.387Z,101045.17
2022-12-24T12:04:22.989Z,101057.55
2022-12-24T12:07:42.516Z,101059.54
2022-12-24T12:11:47.940Z,101065.83
2022-12-24T12:19:11.470Z,101069.02
2022-12-24T12:23:30.949Z,101065.80
2022-12-24T12:27:30.872Z,101063.86
2022-12-24T12:30:47.263Z,101068.25
2022-12-24T12:35:10.810Z,101078.34
2022-12-24T12:38:40.486Z,101081.98
2022-12-24T12:42:38.532Z,101083.51
2022-12-24T12:46:54.463Z,101083.66
2022-12-24T12:50:26.768Z,101081.13
2022-12-24T12:54:56.937Z,101095.92
2022-12-24T12:58:08.055Z,101101.53
2022-12-24T13:01:47.223Z,101101.34
2022-12-24T13:05:44.602Z,101103.38
2022-12-24T13:09:06.682Z,101110.17
2022-12-24T13:13:25.531Z,101121.56
2022-12-24T13:21:17.086Z,101143.63
2022-12-24T13:24:56.332Z,101146.08
2022-12-24T13:28:23.482Z,101148.35
2022-12-24T13:32:19.387Z,101152.41
2022-12-24T13:35:39.773Z,101163.27
2022-12-24T13:39:20.285Z,101168.20
2022-12-24T13:42:58.814Z,101170.66
2022-12-24T13:47:00.738Z,101181.11
2022-12-24T13:51:25.216Z,101180.45
2022-12-24T13:54:56.003Z,101181.09
2022-12-24T13:59:11.835Z,101188.55
2022-12-24T14:03:31.298Z,101189.45
2022-12-24T14:07:53.120Z,101191.23
2022-12-24T14:11:09.430Z,101189.48
2022-12-24T14:15:33.217Z,101195.56
2022-12-24T14:19:53.337Z,101200.42
2022-12-24T14:23:38.317Z,101202.59
2022-12-24T14:27:42.846Z,101220.93
2022-12-24T14:31:54.060Z,101225.42
2022-12-24T14:35:24.633Z,101227.85
2022-12-24T14:39:00.871Z,101231.87
2022-12-24T14:46:54.571Z,101244.94
2022-12-24T14:51:04.188Z,101242.54
2022-12-24T14:55:37.026Z,101243.33
2022-12-24T14:59:58.538Z,101245.92
2022-12-24T15:04:06.607Z,101249.23
2022-12-24T15:08:26.486Z,101248.58
2022-12-24T15:16:18.988Z,101263.68
2022-12-24T15:20:26.743Z,101266.40
2022-12-24T15:24:35.608Z,101261.77
2022-12-24T15:32:56.233Z,101266.85
2022-12-24T15:36:10.013Z,101264.85
2022-12-24T15:39:57.906Z,101268.63
2022-12-24T15:44:05.117Z,101272.71
2022-12-24T15:48:10.081Z,101276.62
2022-12-24T15:52:11.120Z,101274.69
2022-12-24T15:56:12.748Z,101278.54
2022-12-24T16:00:21.491Z,101288.84
2022-12-24T16:04:34.674Z,101303.41
2022-12-24T16:08:35.359Z,101308.12
2022-12-24T16:12:35.137Z,101309.66
2022-12-24T16:16:39.346Z,101312.14
2022-12-24T16:20:38.667Z,101310.24
2022-12-24T16:24:38.489Z,101309.94
2022-12-24T16:28:38.181Z,101316.21
2022-12-24T16:32:38.490Z,101310.98
2022-12-24T16:36:38.312Z,101308.05
2022-12-24T16:40:38.764Z,101310.05
2022-12-24T16:44:22.364Z,101318.95
2022-12-24T16:48:26.871Z,101323.17
2022-12-24T16:52:29.139Z,101325.98
2022-12-24T16:56:36.247Z,101324.32
2022-12-24T17:00:37.618Z,101322.36
2022-12-24T17:04:37.556Z,101322.13
2022-12-24T17:08:37.447Z,101318.64
2022-12-24T17:12:37.353Z,101324.19
2022-12-24T17:16:37.865Z,101330.02
2022-12-24T17:20:39.674Z,101329.34
2022-12-24T17:24:41.243Z,101334.40
2022-12-24T17:28:17.790Z,101339.85
2022-12-24T17:32:19.461Z,101339.73
2022-12-24T17:36:28.272Z,101335.06
2022-12-24T17:40:30.423Z,101339.02
2022-12-24T17:44:33.134Z,101353.38
2022-12-24T17:48:38.152Z,101356.52
2022-12-24T17:52:34.451Z,101358.92
2022-12-24T17:55:55.393Z,101357.09
2022-12-24T18:00:00.986Z,101349.85
2022-12-24T18:03:58.129Z,101348.67
2022-12-24T18:07:17.560Z,101358.15
2022-12-24T18:11:36.648Z,101355.71
2022-12-24T18:15:42.492Z,101357.36
2022-12-24T18:20:08.347Z,101354.61
2022-12-24T18:23:20.527Z,101359.52
2022-12-24T18:27:19.834Z,101359.20
2022-12-24T18:31:38.226Z,101364.30
2022-12-24T18:34:57.043Z,101365.05
2022-12-24T18:38:56.197Z,101369.52
2022-12-24T18:42:55.503Z,101374.95
2022-12-24T18:46:55.258Z,101381.16
2022-12-24T18:51:09.458Z,101383.64
2022-12-24T18:55:09.279Z,101387.38
2022-12-24T18:59:08.231Z,101389.73
2022-12-24T19:03:07.317Z,101395.15
2022-12-24T19:07:07.019Z,101398.53
2022-12-24T19:11:06.272Z,101396.58
2022-12-24T19:15:06.162Z,101405.02
2022-12-24T19:19:24.733Z,101407.77
2022-12-24T19:22:43.181Z,101416.63
2022-12-24T19:26:42.313Z,101424.64
2022-12-24T19:30:44.649Z,101425.04
2022-12-24T19:34:43.991Z,101424.67
2022-12-24T19:38:43.843Z,101430.90
2022-12-24T19:42:43.216Z,101433.52
2022-12-24T19:47:00.992Z,101437.06
2022-12-24T19:50:20.490Z,101442.24
2022-12-24T19:54:19.542Z,101443.13
2022-12-24T19:58:19.102Z,101446.44
2022-12-24T20:02:21.058Z,101448.96
2022-12-24T20:09:59.357Z,101465.40
2022-12-24T20:14:06.645Z,101474.95
2022-12-24T20:17:40.712Z,101477.36
2022-12-24T20:21:39.942Z,101479.70
2022-12-24T20:25:39.235Z,101484.05
2022-12-24T20:29:39.935Z,101490.05
2022-12-24T20:33:39.620Z,101489.77
2022-12-24T20:37:46.265Z,101495.61
2022-12-24T20:41:19.814Z,101499.22
2022-12-24T20:45:27.191Z,101498.82
2022-12-24T20:49:28.361Z,101501.76
2022-12-24T20:53:27.719Z,101490.65
2022-12-24T20:57:32.813Z,101490.49
2022-12-24T21:01:56.400Z,101497.63
2022-12-24T21:05:14.707Z,101503.10
2022-12-24T21:09:18.357Z,101504.20
2022-12-24T21:13:33.619Z,101502.36
2022-12-24T21:17:35.066Z,101503.30
2022-12-24T21:21:43.181Z,101501.25
2022-12-24T21:25:43.109Z,101498.88
2022-12-24T21:29:44.032Z,101500.04
2022-12-24T21:33:20.586Z,101500.15
2022-12-24T21:40:58.450Z,101502.65
2022-12-24T21:44:58.268Z,101499.52
2022-12-24T21:49:18.399Z,101499.03
2022-12-24T21:53:38.121Z,101503.02
2022-12-24T21:58:04.872Z,101494.70
2022-12-24T22:02:04.654Z,101493.77
2022-12-24T22:06:06.886Z,101494.81
2022-12-24T22:10:00.749Z,101497.83
2022-12-24T22:14:01.199Z,101502.17
2022-12-24T22:18:00.543Z,101496.27
2022-12-24T22:21:59.414Z,101498.59
2022-12-24T22:25:58.457Z,101504.33
2022-12-24T22:30:17.515Z,101507.66
2022-12-24T22:33:36.436Z,101510.42
2022-12-24T22:37:36.060Z,101508.33
2022-12-24T22:41:54.242Z,101508.66
2022-12-24T22:45:18.354Z,101505.12
2022-12-24T22:49:21.712Z,101509.48
2022-12-24T22:53:22.420Z,101509.23
2022-12-24T22:57:21.956Z,101510.75
2022-12-24T23:01:31.734Z,101512.45
2022-12-24T23:05:31.531Z,101507.08
2022-12-24T23:09:30.689Z,101508.14
2022-12-24T23:13:48.500Z,101501.49
2022-12-24T23:17:50.795Z,101500.77
2022-12-24T23:21:50.146Z,101503.83
2022-12-24T23:25:49.675Z,101513.64
2022-12-24T23:29:49.649Z,101520.22
2022-12-24T23:33:48.739Z,101530.44
2022-12-24T23:37:47.923Z,101535.00
2022-12-24T23:41:46.613Z,101536.87
2022-12-24T23:45:49.437Z,101534.08
2022-12-24T23:50:02.911Z,101530.14
2022-12-24T23:54:02.034Z,101531.19
2022-12-24T23:58:01.242Z,101526.25
